createdAt,value
2018-08-13T00:03:37.606Z,2.80
2018-08-13T00:08:39.798Z,3.10
2018-08-13T00:13:42.027Z,2.90
2018-08-13T00:18:44.282Z,3.23
2018-08-13T00:23:46.441Z,2.60
2018-08-13T00:28:48.606Z,2.93
2018-08-13T00:33:50.805Z,2.50
2018-08-13T00:38:52.995Z,3.10
2018-08-13T00:43:55.198Z,2.43
2018-08-13T00:48:57.545Z,2.50
2018-08-13T00:53:59.713Z,2.70
2018-08-13T00:59:01.893Z,2.73
2018-08-13T01:04:04.070Z,2.40
2018-08-13T01:09:08.131Z,2.70
2018-08-13T01:14:11.773Z,2.47
2018-08-13T01:19:13.929Z,2.47
2018-08-13T01:24:16.152Z,2.80
2018-08-13T01:29:18.309Z,2.70
2018-08-13T01:34:23.094Z,2.83
2018-08-13T01:39:26.714Z,2.93
2018-08-13T01:44:29.617Z,3.17
2018-08-13T01:49:31.801Z,3.27
2018-08-13T01:54:35.760Z,3.40
2018-08-13T01:59:38.157Z,3.00
2018-08-13T02:04:40.917Z,2.93
2018-08-13T02:09:43.058Z,3.30
2018-08-13T02:14:45.257Z,3.20
2018-08-13T02:19:48.322Z,3.00
2018-08-13T02:24:50.501Z,3.20
2018-08-13T02:29:52.692Z,3.10
2018-08-13T02:34:56.005Z,2.90
2018-08-13T02:39:58.942Z,2.83
2018-08-13T02:45:02.829Z,3.07
2018-08-13T02:50:06.334Z,3.33
2018-08-13T02:55:09.375Z,2.90
2018-08-13T03:00:11.713Z,3.63
2018-08-13T03:05:15.414Z,3.40
2018-08-13T03:10:19.128Z,3.20
2018-08-13T03:15:23.563Z,3.50
2018-08-13T03:20:28.662Z,2.83
2018-08-13T03:25:31.681Z,3.10
2018-08-13T03:30:35.157Z,3.40
2018-08-13T03:35:37.441Z,3.67
2018-08-13T03:40:40.182Z,3.50
2018-08-13T03:45:43.022Z,3.50
2018-08-13T03:50:45.177Z,3.90
2018-08-13T03:55:47.353Z,3.30
2018-08-13T04:00:49.557Z,3.23
2018-08-13T04:05:51.754Z,3.23
2018-08-13T04:10:54.192Z,4.07
2018-08-13T04:15:56.357Z,3.40
2018-08-13T04:20:59.276Z,3.60
2018-08-13T04:26:02.757Z,5.23
2018-08-13T04:31:05.420Z,4.20
2018-08-13T04:36:07.549Z,3.93
2018-08-13T04:41:10.812Z,3.77
2018-08-13T04:46:15.393Z,3.97
2018-08-13T04:51:18.650Z,4.23
2018-08-13T04:56:21.625Z,4.53
2018-08-13T05:01:26.328Z,4.70
2018-08-13T05:06:28.445Z,5.13
2018-08-13T05:11:30.573Z,4.80
2018-08-13T05:16:32.756Z,4.70
2018-08-13T05:21:34.882Z,4.83
2018-08-13T05:26:37.030Z,4.00
2018-08-13T05:31:39.186Z,4.37
2018-08-13T05:36:41.350Z,4.10
2018-08-13T05:41:43.499Z,4.43
2018-08-13T05:46:45.637Z,4.60
2018-08-13T05:51:47.792Z,4.50
2018-08-13T05:56:49.930Z,4.60
2018-08-13T06:01:52.087Z,4.73
2018-08-13T06:06:54.241Z,4.73
2018-08-13T06:11:56.409Z,4.67
2018-08-13T06:16:58.753Z,4.40
2018-08-13T06:22:01.110Z,4.67
2018-08-13T06:27:03.298Z,4.87
2018-08-13T06:32:05.479Z,5.17
2018-08-13T06:37:07.672Z,4.50
2018-08-13T06:42:09.781Z,5.70
2018-08-13T06:47:12.041Z,5.30
2018-08-13T06:52:14.248Z,5.07
2018-08-13T06:57:16.406Z,6.40
2018-08-13T07:02:18.829Z,6.60
2018-08-13T07:07:20.989Z,5.90
2018-08-13T07:12:23.190Z,6.03
2018-08-13T07:17:25.354Z,5.93
2018-08-13T07:22:27.580Z,6.27
2018-08-13T07:27:29.689Z,6.57
2018-08-13T07:32:31.860Z,7.43
2018-08-13T07:37:34.068Z,7.17
2018-08-13T07:42:36.245Z,6.40
2018-08-13T07:47:38.443Z,5.80
2018-08-13T07:52:42.529Z,6.37
2018-08-13T07:57:44.710Z,6.83
2018-08-13T08:02:47.295Z,6.13
2018-08-13T08:07:51.934Z,6.60
2018-08-13T08:12:54.709Z,7.00
2018-08-13T08:17:57.760Z,6.20
2018-08-13T08:23:04.810Z,6.13
2018-08-13T08:28:09.265Z,7.07
2018-08-13T08:33:13.465Z,5.90
2018-08-13T08:38:15.626Z,6.50
2018-08-13T08:43:18.794Z,6.90
2018-08-13T08:48:20.981Z,6.80
2018-08-13T08:53:23.158Z,7.20
2018-08-13T08:58:25.334Z,7.43
2018-08-13T09:03:28.682Z,7.90
2018-08-13T09:08:33.300Z,8.40
2018-08-13T09:13:36.746Z,8.27
2018-08-13T09:18:50.728Z,8.87
2018-08-13T09:24:05.362Z,8.43
2018-08-13T09:29:19.278Z,7.60
2018-08-13T09:34:44.138Z,7.50
2018-08-13T09:39:49.105Z,7.20
2018-08-13T09:44:53.290Z,8.20
2018-08-13T09:49:56.926Z,7.43
2018-08-13T09:55:00.034Z,7.10
2018-08-13T10:00:04.371Z,7.20
2018-08-13T10:05:06.672Z,7.10
2018-08-13T10:10:11.689Z,7.57
2018-08-13T10:15:14.040Z,7.00
2018-08-13T10:20:18.489Z,8.00
2018-08-13T10:25:20.654Z,9.27
2018-08-13T10:30:23.675Z,9.90
2018-08-13T10:35:25.941Z,9.43
2018-08-13T10:40:28.320Z,8.83
2018-08-13T10:45:30.450Z,7.47
2018-08-13T10:50:32.841Z,5.87
2018-08-13T10:55:36.341Z,5.50
2018-08-13T11:00:38.486Z,4.70
2018-08-13T11:05:40.615Z,4.40
2018-08-13T11:10:42.777Z,4.33
2018-08-13T11:15:45.851Z,5.20
2018-08-13T11:20:49.141Z,4.83
2018-08-13T11:25:51.329Z,5.27
2018-08-13T11:30:54.637Z,5.37
2018-08-13T11:35:59.388Z,5.93
2018-08-13T11:41:02.702Z,5.70
2018-08-13T11:46:07.266Z,6.50
2018-08-13T11:51:09.541Z,6.03
2018-08-13T11:56:11.776Z,6.00
2018-08-13T12:01:13.940Z,6.30
2018-08-13T12:06:16.433Z,7.20
2018-08-13T12:11:19.793Z,7.90
2018-08-13T12:16:22.123Z,8.50
2018-08-13T12:21:24.249Z,9.37
2018-08-13T12:26:26.499Z,11.33
2018-08-13T12:31:29.163Z,14.23
2018-08-13T12:36:32.330Z,15.30
2018-08-13T12:41:34.613Z,17.73
2018-08-13T12:46:36.778Z,15.17
2018-08-13T12:51:39.091Z,14.23
2018-08-13T12:56:41.245Z,13.47
2018-08-13T13:01:43.391Z,15.27
2018-08-13T13:06:45.917Z,16.77
2018-08-13T13:11:49.969Z,14.10
2018-08-13T13:16:52.960Z,11.23
2018-08-13T13:21:55.090Z,12.37
2018-08-13T13:26:57.345Z,13.87
2018-08-13T13:31:59.485Z,11.10
2018-08-13T13:37:02.309Z,11.87
2018-08-13T13:42:04.701Z,8.90
2018-08-13T13:47:08.193Z,9.43
2018-08-13T13:52:11.580Z,9.10
2018-08-13T13:57:13.896Z,9.87
2018-08-13T14:02:16.254Z,8.50
2018-08-13T14:07:18.607Z,5.17
2018-08-13T14:12:20.830Z,5.40
2018-08-13T14:17:23.839Z,6.47
2018-08-13T14:22:26.678Z,6.90
2018-08-13T14:27:28.985Z,6.40
2018-08-13T14:32:33.658Z,5.27
2018-08-13T14:37:36.133Z,5.00
2018-08-13T14:42:38.446Z,6.40
2018-08-13T14:47:42.141Z,5.50
2018-08-13T14:52:46.789Z,4.50
2018-08-13T14:57:49.014Z,3.70
2018-08-13T15:02:51.877Z,3.30
2018-08-13T15:07:54.082Z,3.30
2018-08-13T15:12:56.502Z,2.70
2018-08-13T15:17:59.894Z,2.40
2018-08-13T15:23:02.098Z,2.40
2018-08-13T15:28:05.896Z,2.53
2018-08-13T15:33:10.112Z,2.80
2018-08-13T15:38:13.754Z,2.97
2018-08-13T15:43:16.746Z,2.50
2018-08-13T15:48:19.835Z,2.73
2018-08-13T15:53:22.115Z,2.60
2018-08-13T15:58:24.376Z,2.47
2018-08-13T16:03:26.534Z,2.67
2018-08-13T16:08:28.838Z,2.43
2018-08-13T16:13:31.082Z,2.50
2018-08-13T16:18:33.574Z,2.40
2018-08-13T16:23:35.863Z,2.20
2018-08-13T16:28:38.099Z,2.50
2018-08-13T16:33:40.336Z,3.90
2018-08-13T16:38:42.536Z,3.00
2018-08-13T16:43:45.809Z,2.70
2018-08-13T16:48:48.010Z,2.40
2018-08-13T16:53:52.271Z,3.23
2018-08-13T16:58:55.626Z,2.90
2018-08-13T17:03:58.209Z,3.20
2018-08-13T17:09:00.468Z,2.40
2018-08-13T17:14:05.569Z,2.60
2018-08-13T17:19:08.269Z,2.73
2018-08-13T17:24:12.331Z,3.07
2018-08-13T17:29:14.752Z,2.80
2018-08-13T17:34:16.951Z,2.70
2018-08-13T17:39:19.801Z,3.27
2018-08-13T17:44:24.230Z,3.00
2018-08-13T17:49:28.944Z,2.80
2018-08-13T17:54:32.551Z,3.03
2018-08-13T17:59:35.055Z,2.90
2018-08-13T18:04:37.417Z,2.90
2018-08-13T18:09:40.676Z,2.93
2018-08-13T18:14:44.353Z,3.00
2018-08-13T18:19:48.246Z,3.77
2018-08-13T18:24:50.392Z,3.03
2018-08-13T18:29:52.555Z,3.60
2018-08-13T18:34:55.337Z,3.50
2018-08-13T18:39:57.814Z,3.60
2018-08-13T18:45:00.333Z,3.00
2018-08-13T18:50:02.520Z,5.60
2018-08-13T18:55:05.209Z,4.10
2018-08-13T19:00:10.145Z,3.97
2018-08-13T19:05:14.631Z,3.50
2018-08-13T19:10:19.214Z,1.70
2018-08-13T19:15:23.947Z,1.50
2018-08-13T19:20:26.218Z,2.23
2018-08-13T19:25:30.124Z,1.60
2018-08-13T19:30:32.551Z,4.40
2018-08-13T19:35:34.761Z,1.30
2018-08-13T19:40:36.916Z,1.40
2018-08-13T19:45:39.406Z,1.30
2018-08-13T19:50:42.750Z,1.30
2018-08-13T19:55:46.374Z,1.40
2018-08-13T20:00:48.510Z,1.30
2018-08-13T20:05:51.020Z,1.60
2018-08-13T20:10:55.766Z,1.37
2018-08-13T20:15:58.033Z,1.50
2018-08-13T20:21:01.238Z,1.80
2018-08-13T20:26:04.858Z,1.50
2018-08-13T20:31:07.046Z,1.50
2018-08-13T20:36:12.556Z,1.50
2018-08-13T20:41:14.862Z,4.57
2018-08-13T20:46:17.057Z,2.57
2018-08-13T20:51:19.213Z,1.97
2018-08-13T20:56:21.965Z,1.90
2018-08-13T21:01:25.671Z,1.53
2018-08-13T21:06:28.089Z,1.50
2018-08-13T21:11:30.230Z,1.80
2018-08-13T21:16:32.887Z,1.80
2018-08-13T21:21:35.698Z,1.67
2018-08-13T21:26:39.689Z,1.80
2018-08-13T21:31:43.509Z,2.00
2018-08-13T21:36:47.021Z,1.97
2018-08-13T21:41:51.420Z,2.20
2018-08-13T21:46:54.438Z,1.90
2018-08-13T21:51:56.793Z,1.73
2018-08-13T21:56:58.953Z,1.80
2018-08-13T22:02:01.160Z,1.80
2018-08-13T22:07:06.465Z,1.97
2018-08-13T22:12:16.498Z,2.20
2018-08-13T22:17:18.702Z,1.93
2018-08-13T22:22:20.890Z,1.77
2018-08-13T22:27:27.245Z,2.00
2018-08-13T22:32:32.261Z,1.83
2018-08-13T22:37:37.309Z,2.07
2018-08-13T22:42:41.410Z,1.87
2018-08-13T22:47:43.592Z,2.00
2018-08-13T22:52:45.784Z,1.93
2018-08-13T22:57:48.250Z,1.70
2018-08-13T23:02:51.501Z,1.43
2018-08-13T23:07:54.937Z,1.90
2018-08-13T23:12:57.136Z,1.60
2018-08-13T23:18:00.605Z,1.63
2018-08-13T23:23:04.573Z,1.93
2018-08-13T23:28:09.682Z,1.70
2018-08-13T23:33:13.156Z,1.90
2018-08-13T23:38:15.489Z,2.20
2018-08-13T23:43:17.624Z,1.97
2018-08-13T23:48:22.638Z,2.03
2018-08-13T23:53:25.903Z,2.23
2018-08-13T23:58:28.337Z,2.00
